Time,TemperatureF,DewpointF,PressureIn,WindDirection,WindDirectionDegrees,WindSpeedMPH,WindSpeedGustMPH,Humidity,HourlyPrecipIn,Conditions,Clouds,dailyrainin,SoftwareType,DateUTC
2013-05-15 00:00:00,63.9,56.5,30.20,SW,224,0.0,9.0,77,0.00,,,0.00,Wunderground v.1.15,2013-05-15 05:00:00,
2013-05-15 00:05:00,63.8,56.4,30.20,WSW,240,1.0,9.0,77,0.00,,,0.00,Wunderground v.1.15,2013-05-15 05:05:00,
2013-05-15 00:10:00,63.8,56.4,30.20,WSW,240,2.0,9.0,77,0.00,,,0.00,Wunderground v.1.15,2013-05-15 05:10:00,
2013-05-15 00:15:00,63.8,56.8,30.20,SW,217,1.0,9.0,78,0.00,,,0.00,Wunderground v.1.15,2013-05-15 05:15:00,
2013-05-15 00:25:00,63.4,56.4,30.20,SE,131,1.0,9.0,78,0.00,,,0.00,Wunderground v.1.15,2013-05-15 05:25:00,
2013-05-15 00:30:00,62.7,55.7,30.20,SE,129,0.0,9.0,78,0.00,,,0.00,Wunderground v.1.15,2013-05-15 05:30:00,
2013-05-15 00:35:00,62.2,56.0,30.20,ESE,115,1.0,9.0,80,0.00,,,0.00,Wunderground v.1.15,2013-05-15 05:35:00,
2013-05-15 00:40:00,61.6,55.7,30.20,ESE,116,0.0,9.0,81,0.00,,,0.00,Wunderground v.1.15,2013-05-15 05:40:00,
2013-05-15 00:45:00,60.9,55.4,30.21,ESE,116,0.0,9.0,82,0.00,,,0.00,Wunderground v.1.15,2013-05-15 05:45:00,
2013-05-15 00:50:00,60.5,55.3,30.20,ESE,116,0.0,9.0,83,0.00,,,0.00,Wunderground v.1.15,2013-05-15 05:50:00,
2013-05-15 00:55:00,60.1,54.9,30.20,ESE,116,0.0,9.0,83,0.00,,,0.00,Wunderground v.1.15,2013-05-15 05:55:00,
2013-05-15 01:00:00,59.7,54.9,30.20,ESE,115,0.0,9.0,84,0.00,,,0.00,Wunderground v.1.15,2013-05-15 06:00:00,
2013-05-15 01:05:00,59.3,54.8,30.19,ESE,116,0.0,9.0,85,0.00,,,0.00,Wunderground v.1.15,2013-05-15 06:05:00,
2013-05-15 01:10:00,59.0,54.5,30.19,ESE,116,0.0,9.0,85,0.00,,,0.00,Wunderground v.1.15,2013-05-15 06:10:00,
2013-05-15 01:20:00,58.6,54.7,30.19,ESE,115,0.0,9.0,87,0.00,,,0.00,Wunderground v.1.15,2013-05-15 06:20:00,
2013-05-15 01:30:00,58.2,54.7,30.19,ESE,115,0.0,9.0,88,0.00,,,0.00,Wunderground v.1.15,2013-05-15 06:30:00,
2013-05-15 01:35:00,57.9,54.4,30.19,ESE,116,0.0,9.0,88,0.00,,,0.00,Wunderground v.1.15,2013-05-15 06:35:00,
2013-05-15 01:40:00,57.7,54.2,30.19,ESE,115,0.0,9.0,88,0.00,,,0.00,Wunderground v.1.15,2013-05-15 06:40:00,
2013-05-15 01:45:00,57.4,53.9,30.19,ESE,116,0.0,9.0,88,0.00,,,0.00,Wunderground v.1.15,2013-05-15 06:45:00,
2013-05-15 01:50:00,57.1,53.9,30.19,ESE,116,0.0,9.0,89,0.00,,,0.00,Wunderground v.1.15,2013-05-15 06:50:00,
2013-05-15 02:00:00,56.8,53.6,30.20,ESE,116,0.0,9.0,89,0.00,,,0.00,Wunderground v.1.15,2013-05-15 07:00:00,
2013-05-15 02:05:00,56.8,53.9,30.20,ESE,116,0.0,9.0,90,0.00,,,0.00,Wunderground v.1.15,2013-05-15 07:05:00,
2013-05-15 02:10:00,57.0,54.1,30.20,ESE,115,0.0,9.0,90,0.00,,,0.00,Wunderground v.1.15,2013-05-15 07:10:00,
2013-05-15 02:15:00,56.8,53.9,30.20,ESE,116,0.0,9.0,90,0.00,,,0.00,Wunderground v.1.15,2013-05-15 07:15:00,
2013-05-15 02:25:00,56.7,54.1,30.20,ESE,115,0.0,9.0,91,0.00,,,0.00,Wunderground v.1.15,2013-05-15 07:25:00,
2013-05-15 02:35:00,56.7,54.1,30.20,ESE,116,0.0,9.0,91,0.00,,,0.00,Wunderground v.1.15,2013-05-15 07:35:00,
2013-05-15 02:40:00,56.7,54.1,30.20,ESE,115,0.0,9.0,91,0.00,,,0.00,Wunderground v.1.15,2013-05-15 07:40:00,
2013-05-15 02:45:00,56.7,54.1,30.20,ESE,115,0.0,9.0,91,0.00,,,0.00,Wunderground v.1.15,2013-05-15 07:45:00,
2013-05-15 02:50:00,56.6,54.0,30.20,ESE,115,0.0,9.0,91,0.00,,,0.00,Wunderground v.1.15,2013-05-15 07:50:00,
2013-05-15 02:55:00,56.3,53.7,30.20,ESE,115,0.0,9.0,91,0.00,,,0.00,Wunderground v.1.15,2013-05-15 07:55:00,
2013-05-15 03:00:00,56.0,53.4,30.20,ESE,115,0.0,9.0,91,0.00,,,0.00,Wunderground v.1.15,2013-05-15 08:00:00,
2013-05-15 03:10:00,55.7,53.1,30.20,ESE,115,0.0,9.0,91,0.00,,,0.00,Wunderground v.1.15,2013-05-15 08:10:00,
2013-05-15 03:15:00,55.8,53.5,30.20,ESE,116,0.0,9.0,92,0.00,,,0.00,Wunderground v.1.15,2013-05-15 08:15:00,
2013-05-15 03:25:00,55.7,53.4,30.20,ESE,115,0.0,9.0,92,0.00,,,0.00,Wunderground v.1.15,2013-05-15 08:25:00,
2013-05-15 03:30:00,55.5,53.2,30.20,ESE,115,0.0,9.0,92,0.00,,,0.00,Wunderground v.1.15,2013-05-15 08:30:00,
2013-05-15 03:35:00,55.4,53.1,30.20,ESE,116,0.0,9.0,92,0.00,,,0.00,Wunderground v.1.15,2013-05-15 08:35:00,
2013-05-15 03:40:00,56.2,54.2,30.20,ESE,115,0.0,9.0,93,0.00,,,0.00,Wunderground v.1.15,2013-05-15 08:40:00,
2013-05-15 03:45:00,56.7,54.7,30.20,ESE,116,0.0,9.0,93,0.00,,,0.00,Wunderground v.1.15,2013-05-15 08:45:00,
2013-05-15 03:50:00,56.6,54.6,30.20,ESE,116,0.0,9.0,93,0.00,,,0.00,Wunderground v.1.15,2013-05-15 08:50:00,
2013-05-15 03:55:00,56.6,54.6,30.20,ESE,116,0.0,9.0,93,0.00,,,0.00,Wunderground v.1.15,2013-05-15 08:55:00,
2013-05-15 04:00:00,56.6,54.6,30.20,ESE,115,0.0,9.0,93,0.00,,,0.00,Wunderground v.1.15,2013-05-15 09:00:00,
2013-05-15 04:05:00,56.3,54.3,30.20,ESE,116,0.0,9.0,93,0.00,,,0.00,Wunderground v.1.15,2013-05-15 09:05:00,
2013-05-15 04:15:00,56.1,54.1,30.20,ESE,115,0.0,9.0,93,0.00,,,0.00,Wunderground v.1.15,2013-05-15 09:15:00,
2013-05-15 04:20:00,56.1,54.1,30.20,ESE,116,0.0,9.0,93,0.00,,,0.00,Wunderground v.1.15,2013-05-15 09:20:00,
2013-05-15 04:30:00,55.8,53.8,30.21,ESE,115,0.0,9.0,93,0.00,,,0.00,Wunderground v.1.15,2013-05-15 09:30:00,
2013-05-15 04:35:00,55.4,53.4,30.21,ESE,116,0.0,9.0,93,0.00,,,0.00,Wunderground v.1.15,2013-05-15 09:35:00,
2013-05-15 04:40:00,55.5,53.5,30.20,ESE,116,0.0,9.0,93,0.00,,,0.00,Wunderground v.1.15,2013-05-15 09:40:00,
2013-05-15 04:50:00,55.3,53.3,30.21,ESE,116,0.0,9.0,93,0.00,,,0.00,Wunderground v.1.15,2013-05-15 09:50:00,
2013-05-15 04:55:00,54.5,52.5,30.21,ESE,116,0.0,9.0,93,0.00,,,0.00,Wunderground v.1.15,2013-05-15 09:55:00,
2013-05-15 05:00:00,54.3,52.0,30.21,ESE,115,0.0,9.0,92,0.00,,,0.00,Wunderground v.1.15,2013-05-15 10:00:00,
2013-05-15 05:05:00,54.3,52.0,30.22,ESE,115,0.0,9.0,92,0.00,,,0.00,Wunderground v.1.15,2013-05-15 10:05:00,
2013-05-15 05:10:00,-999.9,-99.9,30.21,North,32767,-999.0,9.0,255,-99.99,,,0.00,Wunderground v.1.15,2013-05-15 10:10:00,
2013-05-15 05:15:00,-999.9,-99.9,30.21,North,32767,-999.0,9.0,255,-99.99,,,0.00,Wunderground v.1.15,2013-05-15 10:15:00,
2013-05-15 05:25:00,-999.9,-99.9,30.22,North,32767,-999.0,9.0,255,-99.99,,,0.00,Wunderground v.1.15,2013-05-15 10:25:00,
2013-05-15 05:35:00,-999.9,-99.9,30.22,North,32767,-999.0,9.0,255,-99.99,,,0.00,Wunderground v.1.15,2013-05-15 10:35:00,
2013-05-15 05:40:00,-999.9,-99.9,30.22,North,32767,-999.0,9.0,255,-99.99,,,0.00,Wunderground v.1.15,2013-05-15 10:40:00,
2013-05-15 05:45:00,-999.9,-99.9,30.22,North,32767,-999.0,9.0,255,-99.99,,,0.00,Wunderground v.1.15,2013-05-15 10:45:00,
2013-05-15 05:50:00,-999.9,-99.9,30.23,North,32767,-999.0,9.0,255,-99.99,,,0.00,Wunderground v.1.15,2013-05-15 10:50:00,
2013-05-15 06:00:00,-999.9,-99.9,30.23,North,32767,-999.0,9.0,255,-99.99,,,0.00,Wunderground v.1.15,2013-05-15 11:00:00,
2013-05-15 06:05:00,-999.9,-99.9,30.23,North,32767,-999.0,9.0,255,-99.99,,,0.00,Wunderground v.1.15,2013-05-15 11:05:00,
2013-05-15 06:10:00,-999.9,-99.9,30.23,North,32767,-999.0,9.0,255,-99.99,,,0.00,Wunderground v.1.15,2013-05-15 11:10:00,
2013-05-15 06:15:00,-999.9,-99.9,30.23,North,32767,-999.0,9.0,255,-99.99,,,0.00,Wunderground v.1.15,2013-05-15 11:15:00,
2013-05-15 06:20:00,-999.9,-99.9,30.23,North,32767,-999.0,9.0,255,-99.99,,,0.00,Wunderground v.1.15,2013-05-15 11:20:00,
2013-05-15 06:30:00,-999.9,-99.9,30.23,North,32767,-999.0,9.0,255,-99.99,,,0.00,Wunderground v.1.15,2013-05-15 11:30:00,
2013-05-15 06:35:00,-999.9,-99.9,30.23,North,32767,-999.0,9.0,255,-99.99,,,0.00,Wunderground v.1.15,2013-05-15 11:35:00,
2013-05-15 06:40:00,-999.9,-99.9,30.24,North,32767,-999.0,9.0,255,-99.99,,,0.00,Wunderground v.1.15,2013-05-15 11:40:00,
2013-05-15 06:45:00,55.8,54.4,30.24,ESE,116,0.0,9.0,95,0.00,,,0.00,Wunderground v.1.15,2013-05-15 11:45:00,
2013-05-15 06:50:00,57.0,55.6,30.24,ESE,115,0.0,9.0,95,0.00,,,0.00,Wunderground v.1.15,2013-05-15 11:50:00,
2013-05-15 06:55:00,58.1,56.7,30.24,ESE,115,0.0,9.0,95,0.00,,,0.00,Wunderground v.1.15,2013-05-15 11:55:00,
2013-05-15 07:00:00,59.2,57.8,30.24,ESE,117,0.0,9.0,95,0.00,,,0.00,Wunderground v.1.15,2013-05-15 12:00:00,
2013-05-15 07:10:00,62.0,60.3,30.24,ESE,116,0.0,9.0,94,0.00,,,0.00,Wunderground v.1.15,2013-05-15 12:10:00,
2013-05-15 07:15:00,62.9,61.1,30.24,ESE,116,0.0,9.0,94,0.00,,,0.00,Wunderground v.1.15,2013-05-15 12:15:00,
2013-05-15 07:25:00,65.8,63.7,30.24,ESE,117,0.0,9.0,93,0.00,,,0.00,Wunderground v.1.15,2013-05-15 12:25:00,
2013-05-15 07:30:00,66.6,63.6,30.24,ESE,117,0.0,9.0,90,0.00,,,0.00,Wunderground v.1.15,2013-05-15 12:30:00,
2013-05-15 07:35:00,68.0,64.0,30.24,ESE,117,0.0,9.0,87,0.00,,,0.00,Wunderground v.1.15,2013-05-15 12:35:00,
2013-05-15 07:45:00,66.9,61.6,30.25,WNW,283,1.0,9.0,83,0.00,,,0.00,Wunderground v.1.15,2013-05-15 12:45:00,
2013-05-15 07:50:00,66.9,61.6,30.25,WNW,298,1.0,9.0,83,0.00,,,0.00,Wunderground v.1.15,2013-05-15 12:50:00,
2013-05-15 08:00:00,67.3,61.6,30.25,WNW,285,3.0,3.0,82,0.00,,,0.00,Wunderground v.1.15,2013-05-15 13:00:00,
2013-05-15 08:05:00,67.5,61.5,30.25,WNW,287,3.0,9.0,81,0.00,,,0.00,Wunderground v.1.15,2013-05-15 13:05:00,
2013-05-15 08:10:00,67.9,62.2,30.25,West,281,3.0,9.0,82,0.00,,,0.00,Wunderground v.1.15,2013-05-15 13:10:00,
2013-05-15 08:20:00,68.9,62.8,30.25,WNW,295,2.0,9.0,81,0.00,,,0.00,Wunderground v.1.15,2013-05-15 13:20:00,
2013-05-15 08:30:00,69.7,62.9,30.25,West,281,2.0,9.0,79,0.00,,,0.00,Wunderground v.1.15,2013-05-15 13:30:00,
2013-05-15 08:40:00,70.6,62.7,30.25,West,271,2.0,9.0,76,0.00,,,0.00,Wunderground v.1.15,2013-05-15 13:40:00,
2013-05-15 08:45:00,71.1,62.8,30.24,NNW,330,2.0,9.0,75,0.00,,,0.00,Wunderground v.1.15,2013-05-15 13:45:00,
2013-05-15 09:00:00,72.0,60.9,30.24,WNW,297,3.0,9.0,68,0.00,,,0.00,Wunderground v.1.15,2013-05-15 14:00:00,
2013-05-15 09:05:00,72.4,60.4,30.24,WNW,284,3.0,9.0,66,0.00,,,0.00,Wunderground v.1.15,2013-05-15 14:05:00,
2013-05-15 09:10:00,72.7,60.3,30.24,West,266,3.0,9.0,65,0.00,,,0.00,Wunderground v.1.15,2013-05-15 14:10:00,
2013-05-15 09:15:00,73.2,59.8,30.24,WSW,255,3.0,9.0,63,0.00,,,0.00,Wunderground v.1.15,2013-05-15 14:15:00,
2013-05-15 09:25:00,74.0,61.0,30.24,West,281,2.0,9.0,64,0.00,,,0.00,Wunderground v.1.15,2013-05-15 14:25:00,
2013-05-15 09:35:00,74.4,59.6,30.24,WSW,257,4.0,4.0,60,0.00,,,0.00,Wunderground v.1.15,2013-05-15 14:35:00,
2013-05-15 09:40:00,74.7,58.9,30.24,West,278,3.0,9.0,58,0.00,,,0.00,Wunderground v.1.15,2013-05-15 14:40:00,
2013-05-15 09:45:00,74.8,59.5,30.24,West,270,3.0,9.0,59,0.00,,,0.00,Wunderground v.1.15,2013-05-15 14:45:00,
2013-05-15 09:50:00,75.5,58.7,30.24,West,281,2.0,9.0,56,0.00,,,0.00,Wunderground v.1.15,2013-05-15 14:50:00,
2013-05-15 10:00:00,76.3,58.9,30.24,WNW,299,3.0,9.0,55,0.00,,,0.00,Wunderground v.1.15,2013-05-15 15:00:00,
2013-05-15 10:10:00,76.6,58.7,30.24,SSW,213,3.0,9.0,54,0.00,,,0.00,Wunderground v.1.15,2013-05-15 15:10:00,
2013-05-15 10:20:00,77.5,59.0,30.24,WNW,294,2.0,2.0,53,0.00,,,0.00,Wunderground v.1.15,2013-05-15 15:20:00,
2013-05-15 10:25:00,78.2,59.1,30.24,NW,316,2.0,9.0,52,0.00,,,0.00,Wunderground v.1.15,2013-05-15 15:25:00,
2013-05-15 10:30:00,78.7,59.0,30.24,WSW,256,1.0,9.0,51,0.00,,,0.00,Wunderground v.1.15,2013-05-15 15:30:00,
2013-05-15 10:35:00,79.0,61.5,30.24,NW,321,1.0,9.0,55,0.00,,,0.00,Wunderground v.1.15,2013-05-15 15:35:00,
2013-05-15 10:40:00,79.0,58.8,30.24,WNW,300,1.0,1.0,50,0.00,,,0.00,Wunderground v.1.15,2013-05-15 15:40:00,
2013-05-15 10:50:00,80.5,60.1,30.24,North,352,1.0,9.0,50,0.00,,,0.00,Wunderground v.1.15,2013-05-15 15:50:00,
2013-05-15 10:55:00,80.7,59.2,30.24,NNW,343,1.0,9.0,48,0.00,,,0.00,Wunderground v.1.15,2013-05-15 15:55:00,
2013-05-15 11:05:00,80.3,58.8,30.24,WNW,297,2.0,9.0,48,0.00,,,0.00,Wunderground v.1.15,2013-05-15 16:05:00,
2013-05-15 11:10:00,80.3,59.4,30.24,West,266,2.0,9.0,49,0.00,,,0.00,Wunderground v.1.15,2013-05-15 16:10:00,
2013-05-15 11:20:00,81.2,59.6,30.24,West,278,1.0,1.0,48,0.00,,,0.00,Wunderground v.1.15,2013-05-15 16:20:00,
2013-05-15 11:30:00,80.6,57.3,30.23,WNW,284,2.0,9.0,45,0.00,,,0.00,Wunderground v.1.15,2013-05-15 16:30:00,
2013-05-15 11:50:00,81.5,58.7,30.22,SSE,148,1.0,9.0,46,0.00,,,0.00,Wunderground v.1.15,2013-05-15 16:50:00,
2013-05-15 11:55:00,82.3,60.1,30.21,ESE,120,1.0,9.0,47,0.00,,,0.00,Wunderground v.1.15,2013-05-15 16:55:00,
2013-05-15 12:00:00,82.9,60.6,30.21,WNW,290,2.0,2.0,47,0.00,,,0.00,Wunderground v.1.15,2013-05-15 17:00:00,
2013-05-15 12:10:00,83.9,59.0,30.20,WSW,256,1.0,9.0,43,0.00,,,0.00,Wunderground v.1.15,2013-05-15 17:10:00,
2013-05-15 12:15:00,83.7,59.5,30.20,NE,44,1.0,9.0,44,0.00,,,0.00,Wunderground v.1.15,2013-05-15 17:15:00,
2013-05-15 12:20:00,84.0,59.7,30.20,NE,49,1.0,9.0,44,0.00,,,0.00,Wunderground v.1.15,2013-05-15 17:20:00,
2013-05-15 12:25:00,83.8,58.9,30.20,NNE,22,1.0,9.0,43,0.00,,,0.00,Wunderground v.1.15,2013-05-15 17:25:00,
2013-05-15 12:30:00,83.7,59.5,30.20,NE,38,2.0,2.0,44,0.00,,,0.00,Wunderground v.1.15,2013-05-15 17:30:00,
2013-05-15 12:35:00,83.8,58.3,30.19,WNW,302,2.0,9.0,42,0.00,,,0.00,Wunderground v.1.15,2013-05-15 17:35:00,
2013-05-15 12:45:00,83.4,57.9,30.19,West,277,2.0,9.0,42,0.00,,,0.00,Wunderground v.1.15,2013-05-15 17:45:00,
2013-05-15 13:00:00,83.6,59.4,30.18,WNW,297,2.0,9.0,44,0.00,,,0.00,Wunderground v.1.15,2013-05-15 18:00:00,
2013-05-15 13:05:00,83.8,59.6,30.18,NNE,20,3.0,9.0,44,0.00,,,0.00,Wunderground v.1.15,2013-05-15 18:05:00,
2013-05-15 13:10:00,83.7,60.1,30.18,East,89,2.0,2.0,45,0.00,,,0.00,Wunderground v.1.15,2013-05-15 18:10:00,
2013-05-15 13:20:00,84.5,59.5,30.18,NNW,329,1.0,1.0,43,0.00,,,0.00,Wunderground v.1.15,2013-05-15 18:20:00,
2013-05-15 13:25:00,84.9,58.6,30.17,SW,221,2.0,5.0,41,0.00,,,0.00,Wunderground v.1.15,2013-05-15 18:25:00,
2013-05-15 13:35:00,85.2,58.2,30.17,WNW,284,2.0,9.0,40,0.00,,,0.00,Wunderground v.1.15,2013-05-15 18:35:00,
2013-05-15 13:45:00,85.9,59.5,30.16,East,90,1.0,9.0,41,0.00,,,0.00,Wunderground v.1.15,2013-05-15 18:45:00,
2013-05-15 13:50:00,85.7,58.6,30.16,WSW,250,1.0,9.0,40,0.00,,,0.00,Wunderground v.1.15,2013-05-15 18:50:00,
2013-05-15 14:00:00,85.4,59.0,30.15,ESE,117,2.0,2.0,41,0.00,,,0.00,Wunderground v.1.15,2013-05-15 19:00:00,
2013-05-15 14:15:00,86.1,59.6,30.15,SE,135,4.0,9.0,41,0.00,,,0.00,Wunderground v.1.15,2013-05-15 19:15:00,
2013-05-15 14:20:00,86.2,58.3,30.14,South,186,3.0,9.0,39,0.00,,,0.00,Wunderground v.1.15,2013-05-15 19:20:00,
2013-05-15 14:25:00,86.7,58.8,30.14,WNW,291,2.0,9.0,39,0.00,,,0.00,Wunderground v.1.15,2013-05-15 19:25:00,
2013-05-15 14:35:00,86.7,58.1,30.13,SSW,203,2.0,5.0,38,0.00,,,0.00,Wunderground v.1.15,2013-05-15 19:35:00,
2013-05-15 14:45:00,86.6,60.1,30.13,ESE,105,3.0,9.0,41,0.00,,,0.00,Wunderground v.1.15,2013-05-15 19:45:00,
2013-05-15 14:50:00,86.7,59.5,30.13,WNW,290,1.0,9.0,40,0.00,,,0.00,Wunderground v.1.15,2013-05-15 19:50:00,
2013-05-15 14:55:00,85.9,59.5,30.12,NNW,338,2.0,9.0,41,0.00,,,0.00,Wunderground v.1.15,2013-05-15 19:55:00,
2013-05-15 15:00:00,86.2,58.3,30.12,SW,226,2.0,2.0,39,0.00,,,0.00,Wunderground v.1.15,2013-05-15 20:00:00,
2013-05-15 15:05:00,86.5,59.3,30.12,WNW,288,1.0,9.0,40,0.00,,,0.00,Wunderground v.1.15,2013-05-15 20:05:00,
2013-05-15 15:15:00,86.8,58.9,30.11,ESE,107,2.0,9.0,39,0.00,,,0.00,Wunderground v.1.15,2013-05-15 20:15:00,
2013-05-15 15:20:00,86.8,59.6,30.11,NNE,17,2.0,2.0,40,0.00,,,0.00,Wunderground v.1.15,2013-05-15 20:20:00,
2013-05-15 15:25:00,87.1,59.1,30.11,NE,54,2.0,9.0,39,0.00,,,0.00,Wunderground v.1.15,2013-05-15 20:25:00,
2013-05-15 15:35:00,86.3,59.1,30.11,SW,236,2.0,9.0,40,0.00,,,0.00,Wunderground v.1.15,2013-05-15 20:35:00,
2013-05-15 15:40:00,86.8,61.0,30.10,WSW,250,1.0,9.0,42,0.00,,,0.00,Wunderground v.1.15,2013-05-15 20:40:00,
2013-05-15 15:50:00,87.0,59.0,30.10,South,190,5.0,9.0,39,0.00,,,0.00,Wunderground v.1.15,2013-05-15 20:50:00,
2013-05-15 15:55:00,86.4,57.8,30.10,SSW,205,6.0,9.0,38,0.00,,,0.00,Wunderground v.1.15,2013-05-15 20:55:00,
2013-05-15 16:00:00,86.1,58.2,30.10,SE,128,7.0,9.0,39,0.00,,,0.00,Wunderground v.1.15,2013-05-15 21:00:00,
2013-05-15 16:05:00,85.7,57.9,30.10,South,190,6.0,9.0,39,0.00,,,0.00,Wunderground v.1.15,2013-05-15 21:05:00,
2013-05-15 16:10:00,85.6,58.5,30.10,SSE,166,6.0,6.0,40,0.00,,,0.00,Wunderground v.1.15,2013-05-15 21:10:00,
2013-05-15 16:15:00,85.0,57.3,30.10,SW,218,7.0,9.0,39,0.00,,,0.00,Wunderground v.1.15,2013-05-15 21:15:00,
2013-05-15 16:25:00,84.1,56.5,30.09,SSE,148,7.0,9.0,39,0.00,,,0.00,Wunderground v.1.15,2013-05-15 21:25:00,
2013-05-15 16:30:00,84.2,57.9,30.09,SSW,200,6.0,9.0,41,0.00,,,0.00,Wunderground v.1.15,2013-05-15 21:30:00,
2013-05-15 16:35:00,84.5,58.2,30.09,SSW,212,5.0,9.0,41,0.00,,,0.00,Wunderground v.1.15,2013-05-15 21:35:00,
2013-05-15 16:50:00,84.2,57.3,30.09,SSW,204,5.0,9.0,40,0.00,,,0.00,Wunderground v.1.15,2013-05-15 21:50:00,
2013-05-15 17:00:00,83.6,57.4,30.09,South,191,6.0,9.0,41,0.00,,,0.00,Wunderground v.1.15,2013-05-15 22:00:00,
2013-05-15 17:05:00,83.4,57.2,30.09,SSW,192,6.0,9.0,41,0.00,,,0.00,Wunderground v.1.15,2013-05-15 22:05:00,
2013-05-15 17:10:00,83.1,57.0,30.09,SSW,199,6.0,9.0,41,0.00,,,0.00,Wunderground v.1.15,2013-05-15 22:10:00,
2013-05-15 17:20:00,82.5,56.4,30.09,SSW,212,6.0,6.0,41,0.00,,,0.00,Wunderground v.1.15,2013-05-15 22:20:00,
2013-05-15 17:25:00,81.9,56.6,30.09,SW,235,7.0,8.0,42,0.00,,,0.00,Wunderground v.1.15,2013-05-15 22:25:00,
2013-05-15 17:35:00,81.3,57.3,30.09,SSE,150,7.0,9.0,44,0.00,,,0.00,Wunderground v.1.15,2013-05-15 22:35:00,
2013-05-15 17:45:00,81.2,57.2,30.09,SW,219,6.0,9.0,44,0.00,,,0.00,Wunderground v.1.15,2013-05-15 22:45:00,
2013-05-15 17:50:00,81.3,56.0,30.08,WNW,282,5.0,5.0,42,0.00,,,0.00,Wunderground v.1.15,2013-05-15 22:50:00,
2013-05-15 17:55:00,81.3,56.0,30.08,SW,226,5.0,9.0,42,0.00,,,0.00,Wunderground v.1.15,2013-05-15 22:55:00,
2013-05-15 18:05:00,80.9,55.7,30.08,SSW,206,5.0,9.0,42,0.00,,,0.00,Wunderground v.1.15,2013-05-15 23:05:00,
2013-05-15 18:15:00,80.7,56.1,30.08,SW,216,5.0,9.0,43,0.00,,,0.00,Wunderground v.1.15,2013-05-15 23:15:00,
2013-05-15 18:20:00,80.5,55.9,30.08,SSE,163,5.0,9.0,43,0.00,,,0.00,Wunderground v.1.15,2013-05-15 23:20:00,
2013-05-15 18:25:00,80.4,55.9,30.08,SW,224,4.0,9.0,43,0.00,,,0.00,Wunderground v.1.15,2013-05-15 23:25:00,
2013-05-15 18:30:00,80.3,57.0,30.08,South,174,4.0,9.0,45,0.00,,,0.00,Wunderground v.1.15,2013-05-15 23:30:00,
2013-05-15 18:40:00,79.8,55.9,30.08,South,191,4.0,4.0,44,0.00,,,0.00,Wunderground v.1.15,2013-05-15 23:40:00,
2013-05-15 18:50:00,79.0,56.5,30.08,South,172,3.0,3.0,46,0.00,,,0.00,Wunderground v.1.15,2013-05-15 23:50:00,
2013-05-15 18:55:00,78.3,55.8,30.08,South,172,3.0,4.0,46,0.00,,,0.00,Wunderground v.1.15,2013-05-15 23:55:00,
2013-05-15 19:00:00,77.4,55.6,30.08,SSW,203,3.0,9.0,47,0.00,,,0.00,Wunderground v.1.15,2013-05-16 00:00:00,
2013-05-15 19:05:00,76.7,55.5,30.09,SW,220,3.0,9.0,48,0.00,,,0.00,Wunderground v.1.15,2013-05-16 00:05:00,
2013-05-15 19:10:00,76.1,55.0,30.09,SW,220,3.0,3.0,48,0.00,,,0.00,Wunderground v.1.15,2013-05-16 00:10:00,
2013-05-15 19:15:00,75.5,55.0,30.09,SSE,153,2.0,9.0,49,0.00,,,0.00,Wunderground v.1.15,2013-05-16 00:15:00,
2013-05-15 19:25:00,74.4,54.5,30.09,SSW,212,2.0,9.0,50,0.00,,,0.00,Wunderground v.1.15,2013-05-16 00:25:00,
2013-05-15 19:35:00,73.5,54.3,30.09,SW,215,1.0,9.0,51,0.00,,,0.00,Wunderground v.1.15,2013-05-16 00:35:00,
2013-05-15 19:45:00,72.5,53.9,30.09,SE,139,0.0,9.0,52,0.00,,,0.00,Wunderground v.1.15,2013-05-16 00:45:00,
2013-05-15 19:55:00,71.8,53.7,30.09,SSE,155,0.0,9.0,53,0.00,,,0.00,Wunderground v.1.15,2013-05-16 00:55:00,
2013-05-15 20:00:00,71.5,54.0,30.09,SSE,166,1.0,9.0,54,0.00,,,0.00,Wunderground v.1.15,2013-05-16 01:00:00,
2013-05-15 20:10:00,71.1,53.6,30.09,SSE,163,1.0,9.0,54,0.00,,,0.00,Wunderground v.1.15,2013-05-16 01:10:00,
2013-05-15 20:15:00,71.0,53.5,30.09,SSW,198,1.0,9.0,54,0.00,,,0.00,Wunderground v.1.15,2013-05-16 01:15:00,
2013-05-15 20:20:00,70.9,53.4,30.09,SSE,163,1.0,9.0,54,0.00,,,0.00,Wunderground v.1.15,2013-05-16 01:20:00,
2013-05-15 20:30:00,70.7,53.7,30.09,South,176,1.0,1.0,55,0.00,,,0.00,Wunderground v.1.15,2013-05-16 01:30:00,
2013-05-15 20:35:00,70.5,53.6,30.09,SSW,211,1.0,9.0,55,0.00,,,0.00,Wunderground v.1.15,2013-05-16 01:35:00,
2013-05-15 20:45:00,70.0,53.6,30.09,SSW,210,1.0,9.0,56,0.00,,,0.00,Wunderground v.1.15,2013-05-16 01:45:00,
2013-05-15 20:50:00,69.7,53.3,30.10,SSE,163,1.0,9.0,56,0.00,,,0.00,Wunderground v.1.15,2013-05-16 01:50:00,
2013-05-15 20:55:00,69.5,52.6,30.09,SSE,158,1.0,9.0,55,0.00,,,0.00,Wunderground v.1.15,2013-05-16 01:55:00,
2013-05-15 21:00:00,69.3,52.4,30.09,SW,214,1.0,9.0,55,0.00,,,0.00,Wunderground v.1.15,2013-05-16 02:00:00,
2013-05-15 21:05:00,69.2,52.3,30.10,SSE,167,1.0,9.0,55,0.00,,,0.00,Wunderground v.1.15,2013-05-16 02:05:00,
2013-05-15 21:10:00,69.0,52.6,30.10,SSE,156,1.0,1.0,56,0.00,,,0.00,Wunderground v.1.15,2013-05-16 02:10:00,
2013-05-15 21:20:00,68.6,53.2,30.10,South,174,0.0,9.0,58,0.00,,,0.00,Wunderground v.1.15,2013-05-16 02:20:00,
2013-05-15 21:30:00,67.8,54.3,30.10,South,174,0.0,9.0,62,0.00,,,0.00,Wunderground v.1.15,2013-05-16 02:30:00,
2013-05-15 21:35:00,67.4,53.9,30.10,SSE,166,0.0,9.0,62,0.00,,,0.00,Wunderground v.1.15,2013-05-16 02:35:00,
2013-05-15 21:40:00,67.1,54.1,30.10,SSE,150,0.0,9.0,63,0.00,,,0.00,Wunderground v.1.15,2013-05-16 02:40:00,
2013-05-15 21:45:00,67.0,54.4,30.10,SSE,156,0.0,9.0,64,0.00,,,0.00,Wunderground v.1.15,2013-05-16 02:45:00,
2013-05-15 21:55:00,66.6,54.9,30.10,SE,138,0.0,9.0,66,0.00,,,0.00,Wunderground v.1.15,2013-05-16 02:55:00,
2013-05-15 22:05:00,66.1,54.8,30.10,SE,142,0.0,9.0,67,0.00,,,0.00,Wunderground v.1.15,2013-05-16 03:05:00,
2013-05-15 22:10:00,65.9,55.0,30.09,SE,139,0.0,9.0,68,0.00,,,0.00,Wunderground v.1.15,2013-05-16 03:10:00,
2013-05-15 22:20:00,66.1,55.6,30.09,SSW,198,0.0,9.0,69,0.00,,,0.00,Wunderground v.1.15,2013-05-16 03:20:00,
2013-05-15 22:25:00,66.2,56.5,30.10,SSW,205,0.0,9.0,71,0.00,,,0.00,Wunderground v.1.15,2013-05-16 03:25:00,
2013-05-15 22:35:00,65.8,56.5,30.10,SSW,205,0.0,9.0,72,0.00,,,0.00,Wunderground v.1.15,2013-05-16 03:35:00,
2013-05-15 22:40:00,65.5,55.8,30.10,SSW,205,0.0,9.0,71,0.00,,,0.00,Wunderground v.1.15,2013-05-16 03:40:00,
2013-05-15 22:45:00,65.4,55.7,30.09,SSW,205,0.0,9.0,71,0.00,,,0.00,Wunderground v.1.15,2013-05-16 03:45:00,
2013-05-15 22:50:00,65.4,55.7,30.09,ESE,122,0.0,9.0,71,0.00,,,0.00,Wunderground v.1.15,2013-05-16 03:50:00,
2013-05-15 23:00:00,66.0,56.7,30.08,ESE,105,1.0,9.0,72,0.00,,,0.00,Wunderground v.1.15,2013-05-16 04:00:00,
2013-05-15 23:05:00,66.2,56.9,30.08,SE,142,1.0,9.0,72,0.00,,,0.00,Wunderground v.1.15,2013-05-16 04:05:00,
2013-05-15 23:10:00,66.2,56.9,30.08,East,101,0.0,9.0,72,0.00,,,0.00,Wunderground v.1.15,2013-05-16 04:10:00,
2013-05-15 23:15:00,66.3,57.4,30.08,SE,139,0.0,9.0,73,0.00,,,0.00,Wunderground v.1.15,2013-05-16 04:15:00,
2013-05-15 23:20:00,66.2,57.7,30.08,SSE,148,0.0,9.0,74,0.00,,,0.00,Wunderground v.1.15,2013-05-16 04:20:00,
2013-05-15 23:25:00,66.3,58.1,30.08,SE,140,0.0,9.0,75,0.00,,,0.00,Wunderground v.1.15,2013-05-16 04:25:00,
2013-05-15 23:30:00,66.3,58.5,30.08,SSW,207,0.0,9.0,76,0.00,,,0.00,Wunderground v.1.15,2013-05-16 04:30:00,
2013-05-15 23:40:00,66.5,59.1,30.08,SE,142,0.0,9.0,77,0.00,,,0.00,Wunderground v.1.15,2013-05-16 04:40:00,
2013-05-15 23:45:00,66.5,59.4,30.08,SSE,158,0.0,9.0,78,0.00,,,0.00,Wunderground v.1.15,2013-05-16 04:45:00,
2013-05-15 23:50:00,66.4,59.3,30.08,SSW,195,0.0,9.0,78,0.00,,,0.00,Wunderground v.1.15,2013-05-16 04:50:00,
2013-05-15 23:55:00,66.4,59.7,30.07,SW,225,0.0,9.0,79,0.00,,,0.00,Wunderground v.1.15,2013-05-16 04:55:00,